sensor_id;sensor_type;location;lat;lon;timestamp;pressure;altitude;pressure_sealevel;temperature;humidity
18813;BME280;9534;51.140;6.296;2023-12-04T00:02:54;66751.03;;;0.53;100.00
18813;BME280;9534;51.140;6.296;2023-12-04T00:06:59;66755.53;;;0.57;100.00
18813;BME280;9534;51.140;6.296;2023-12-04T00:11:03;66753.84;;;0.55;100.00
18813;BME280;9534;51.140;6.296;2023-12-04T00:15:07;66752.16;;;0.54;100.00
18813;BME280;9534;51.140;6.296;2023-12-04T00:19:10;66751.75;;;0.56;100.00
18813;BME280;9534;51.140;6.296;2023-12-04T00:23:13;66754.25;;;0.53;100.00
18813;BME280;9534;51.140;6.296;2023-12-04T00:27:18;66750.22;;;0.57;100.00
18813;BME280;9534;51.140;6.296;2023-12-04T00:31:22;66750.75;;;0.57;100.00
18813;BME280;9534;51.140;6.296;2023-12-04T00:35:25;66756.09;;;0.57;100.00
18813;BME280;9534;51.140;6.296;2023-12-04T00:39:28;66766.13;;;0.64;100.00
18813;BME280;9534;51.140;6.296;2023-12-04T00:43:35;66762.88;;;0.63;100.00
18813;BME280;9534;51.140;6.296;2023-12-04T00:47:38;66758.53;;;0.62;100.00
18813;BME280;9534;51.140;6.296;2023-12-04T00:51:41;66764.59;;;0.65;100.00
18813;BME280;9534;51.140;6.296;2023-12-04T00:55:44;66762.47;;;0.65;100.00
18813;BME280;9534;51.140;6.296;2023-12-04T00:59:48;66763.44;;;0.64;100.00
18813;BME280;9534;51.140;6.296;2023-12-04T01:03:51;66765.31;;;0.68;100.00
18813;BME280;9534;51.140;6.296;2023-12-04T01:07:55;66774.75;;;0.74;100.00
18813;BME280;9534;51.140;6.296;2023-12-04T01:11:58;66771.50;;;0.73;100.00
18813;BME280;9534;51.140;6.296;2023-12-04T01:16:05;66780.97;;;0.79;100.00
18813;BME280;9534;51.140;6.296;2023-12-04T01:20:12;66775.06;;;0.79;100.00
18813;BME280;9534;51.140;6.296;2023-12-04T01:24:15;66782.25;;;0.83;100.00
18813;BME280;9534;51.140;6.296;2023-12-04T01:28:21;66787.19;;;0.85;100.00
18813;BME280;9534;51.140;6.296;2023-12-04T01:32:25;66785.47;;;0.83;100.00
18813;BME280;9534;51.140;6.296;2023-12-04T01:36:28;66788.31;;;0.86;100.00
18813;BME280;9534;51.140;6.296;2023-12-04T01:40:39;66795.91;;;0.88;100.00
18813;BME280;9534;51.140;6.296;2023-12-04T01:44:42;66791.72;;;0.89;100.00
18813;BME280;9534;51.140;6.296;2023-12-04T01:48:48;66793.41;;;0.90;100.00
18813;BME280;9534;51.140;6.296;2023-12-04T01:52:52;66798.19;;;0.90;100.00
18813;BME280;9534;51.140;6.296;2023-12-04T01:57:07;66790.19;;;0.90;100.00
18813;BME280;9534;51.140;6.296;2023-12-04T02:01:11;66791.72;;;0.89;100.00
18813;BME280;9534;51.140;6.296;2023-12-04T02:05:16;66792.84;;;0.90;100.00
18813;BME280;9534;51.140;6.296;2023-12-04T02:09:21;66780.72;;;0.84;100.00
18813;BME280;9534;51.140;6.296;2023-12-04T02:13:24;66788.31;;;0.86;100.00
18813;BME280;9534;51.140;6.296;2023-12-04T02:17:28;66787.41;;;0.80;100.00
18813;BME280;9534;51.140;6.296;2023-12-04T02:21:33;66781.13;;;0.82;100.00
18813;BME280;9534;51.140;6.296;2023-12-04T02:25:37;66779.81;;;0.78;100.00
18813;BME280;9534;51.140;6.296;2023-12-04T02:29:43;66781.53;;;0.80;100.00
18813;BME280;9534;51.140;6.296;2023-12-04T02:33:49;66784.19;;;0.80;100.00
18813;BME280;9534;51.140;6.296;2023-12-04T02:37:56;66774.03;;;0.71;100.00
18813;BME280;9534;51.140;6.296;2023-12-04T02:42:01;66775.88;;;0.75;100.00
18813;BME280;9534;51.140;6.296;2023-12-04T02:46:05;66784.19;;;0.80;100.00
18813;BME280;9534;51.140;6.296;2023-12-04T02:50:10;66769.41;;;0.74;100.00
18813;BME280;9534;51.140;6.296;2023-12-04T02:54:15;66773.22;;;0.75;100.00
18813;BME280;9534;51.140;6.296;2023-12-04T02:58:22;66778.56;;;0.75;100.00
18813;BME280;9534;51.140;6.296;2023-12-04T03:02:25;66775.88;;;0.75;100.00
18813;BME280;9534;51.140;6.296;2023-12-04T03:06:28;66778.16;;;0.77;100.00
18813;BME280;9534;51.140;6.296;2023-12-04T03:10:32;66771.69;;;0.76;100.00
18813;BME280;9534;51.140;6.296;2023-12-04T03:14:38;66773.03;;;0.72;100.00
18813;BME280;9534;51.140;6.296;2023-12-04T03:18:40;66783.47;;;0.77;100.00
18813;BME280;9534;51.140;6.296;2023-12-04T03:22:44;66778.16;;;0.77;100.00
18813;BME280;9534;51.140;6.296;2023-12-04T03:26:49;66767.16;;;0.72;100.00
18813;BME280;9534;51.140;6.296;2023-12-04T03:30:55;66770.97;;;0.73;100.00
18813;BME280;9534;51.140;6.296;2023-12-04T03:34:59;66777.00;;;0.76;100.00
18813;BME280;9534;51.140;6.296;2023-12-04T03:39:03;66770.22;;;0.70;100.00
18813;BME280;9534;51.140;6.296;2023-12-04T03:43:06;66763.59;;;0.66;100.00
18813;BME280;9534;51.140;6.296;2023-12-04T03:47:10;66769.41;;;0.74;100.00
18813;BME280;9534;51.140;6.296;2023-12-04T03:51:15;66775.16;;;0.72;100.00
18813;BME280;9534;51.140;6.296;2023-12-04T03:55:18;66780.09;;;0.74;100.00
18813;BME280;9534;51.140;6.296;2023-12-04T03:59:21;66766.03;;;0.71;100.00
18813;BME280;9534;51.140;6.296;2023-12-04T04:03:27;66768.38;;;0.66;100.00
18813;BME280;9534;51.140;6.296;2023-12-04T04:07:32;66767.97;;;0.68;100.00
18813;BME280;9534;51.140;6.296;2023-12-04T04:11:35;66764.59;;;0.65;100.00
18813;BME280;9534;51.140;6.296;2023-12-04T04:15:39;66767.66;;;0.63;100.00
18813;BME280;9534;51.140;6.296;2023-12-04T04:19:45;66752.88;;;0.57;100.00
18813;BME280;9534;51.140;6.296;2023-12-04T04:23:48;66751.75;;;0.56;100.00
18813;BME280;9534;51.140;6.296;2023-12-04T04:27:52;66753.28;;;0.55;100.00
18813;BME280;9534;51.140;6.296;2023-12-04T04:31:57;66754.41;;;0.56;100.00
18813;BME280;9534;51.140;6.296;2023-12-04T04:36:02;66763.44;;;0.64;100.00
18813;BME280;9534;51.140;6.296;2023-12-04T04:40:06;66756.81;;;0.60;100.00
18813;BME280;9534;51.140;6.296;2023-12-04T04:44:10;66758.94;;;0.60;100.00
18813;BME280;9534;51.140;6.296;2023-12-04T04:48:15;66762.31;;;0.63;100.00
18813;BME280;9534;51.140;6.296;2023-12-04T04:52:19;66759.47;;;0.60;100.00
18813;BME280;9534;51.140;6.296;2023-12-04T04:56:22;66762.31;;;0.63;100.00
18813;BME280;9534;51.140;6.296;2023-12-04T05:00:26;66764.41;;;0.62;100.00
18813;BME280;9534;51.140;6.296;2023-12-04T05:04:29;66767.81;;;0.65;100.00
18813;BME280;9534;51.140;6.296;2023-12-04T05:08:34;66768.38;;;0.66;100.00
18813;BME280;9534;51.140;6.296;2023-12-04T05:12:36;66766.53;;;0.62;100.00
18813;BME280;9534;51.140;6.296;2023-12-04T05:16:40;66769.50;;;0.67;100.00
18813;BME280;9534;51.140;6.296;2023-12-04T05:20:43;66762.47;;;0.65;100.00
18813;BME280;9534;51.140;6.296;2023-12-04T05:24:47;66761.19;;;0.62;100.00
18813;BME280;9534;51.140;6.296;2023-12-04T05:28:50;66765.72;;;0.66;100.00
18813;BME280;9534;51.140;6.296;2023-12-04T05:32:53;66766.84;;;0.67;100.00
18813;BME280;9534;51.140;6.296;2023-12-04T05:36:57;66769.66;;;0.69;100.00
18813;BME280;9534;51.140;6.296;2023-12-04T05:41:01;66772.50;;;0.72;100.00
18813;BME280;9534;51.140;6.296;2023-12-04T05:45:05;66774.75;;;0.74;100.00
18813;BME280;9534;51.140;6.296;2023-12-04T05:49:09;66775.16;;;0.72;100.00
18813;BME280;9534;51.140;6.296;2023-12-04T05:53:12;66776.59;;;0.78;100.00
18813;BME280;9534;51.140;6.296;2023-12-04T05:57:16;66780.41;;;0.79;100.00
18813;BME280;9534;51.140;6.296;2023-12-04T06:01:19;66781.53;;;0.80;100.00
18813;BME280;9534;51.140;6.296;2023-12-04T06:05:22;66780.97;;;0.79;100.00
18813;BME280;9534;51.140;6.296;2023-12-04T06:09:26;66783.78;;;0.82;100.00
18813;BME280;9534;51.140;6.296;2023-12-04T06:13:30;66799.50;;;1.03;100.00
18813;BME280;9534;51.140;6.296;2023-12-04T06:17:33;66800.19;;;0.96;100.00
18813;BME280;9534;51.140;6.296;2023-12-04T06:21:39;66799.59;;;0.96;100.00
18813;BME280;9534;51.140;6.296;2023-12-04T06:25:42;66803.00;;;0.99;100.00
18813;BME280;9534;51.140;6.296;2023-12-04T06:29:47;66797.91;;;0.94;100.00
18813;BME280;9534;51.140;6.296;2023-12-04T06:33:53;66803.00;;;0.99;100.00
18813;BME280;9534;51.140;6.296;2023-12-04T06:37:58;66807.84;;;1.08;100.00
18813;BME280;9534;51.140;6.296;2023-12-04T06:42:03;66814.31;;;1.09;100.00
18813;BME280;9534;51.140;6.296;2023-12-04T06:46:08;66814.88;;;1.09;100.00
18813;BME280;9534;51.140;6.296;2023-12-04T06:50:12;66808.09;;;1.03;100.00
18813;BME280;9534;51.140;6.296;2023-12-04T06:54:15;66803.00;;;0.99;100.00
18813;BME280;9534;51.140;6.296;2023-12-04T06:58:22;66807.09;;;1.05;100.00
18813;BME280;9534;51.140;6.296;2023-12-04T07:02:27;66805.66;;;0.99;100.00
18813;BME280;9534;51.140;6.296;2023-12-04T07:06:30;66817.94;;;1.07;100.00
18813;BME280;9534;51.140;6.296;2023-12-04T07:10:33;66814.31;;;1.09;100.00
18813;BME280;9534;51.140;6.296;2023-12-04T07:14:36;66816.16;;;1.13;100.00
18813;BME280;9534;51.140;6.296;2023-12-04T07:18:42;66817.13;;;1.11;100.00
18813;BME280;9534;51.140;6.296;2023-12-04T07:22:46;66821.09;;;1.15;100.00
18813;BME280;9534;51.140;6.296;2023-12-04T07:26:49;66810.91;;;1.06;100.00
18813;BME280;9534;51.140;6.296;2023-12-04T07:30:54;66808.00;;;1.10;100.00
18813;BME280;9534;51.140;6.296;2023-12-04T07:35:00;66817.13;;;1.11;100.00
18813;BME280;9534;51.140;6.296;2023-12-04T07:39:04;66815.44;;;1.10;100.00
18813;BME280;9534;51.140;6.296;2023-12-04T07:43:08;66807.84;;;1.08;100.00
18813;BME280;9534;51.140;6.296;2023-12-04T07:47:12;66805.56;;;1.06;100.00
18813;BME280;9534;51.140;6.296;2023-12-04T07:51:16;66806.16;;;1.06;100.00
18813;BME280;9534;51.140;6.296;2023-12-04T07:55:21;66796.13;;;1.00;100.00
18813;BME280;9534;51.140;6.296;2023-12-04T07:59:24;66798.78;;;1.00;100.00
18813;BME280;9534;51.140;6.296;2023-12-04T08:03:27;66796.53;;;0.98;100.00
18813;BME280;9534;51.140;6.296;2023-12-04T08:07:32;66793.00;;;0.92;100.00
18813;BME280;9534;51.140;6.296;2023-12-04T08:11:36;66786.22;;;0.86;100.00
18813;BME280;9534;51.140;6.296;2023-12-04T08:15:39;66787.91;;;0.88;100.00
18813;BME280;9534;51.140;6.296;2023-12-04T08:19:42;66797.03;;;0.89;100.00
18813;BME280;9534;51.140;6.296;2023-12-04T08:23:47;66797.38;;;0.94;100.00
18813;BME280;9534;51.140;6.296;2023-12-04T08:27:50;66801.16;;;0.95;100.00
18813;BME280;9534;51.140;6.296;2023-12-04T08:31:53;66808.31;;;0.99;100.00
18813;BME280;9534;51.140;6.296;2023-12-04T08:35:56;66808.66;;;1.04;100.00
18813;BME280;9534;51.140;6.296;2023-12-04T08:40:03;66814.63;;;1.14;100.00
18813;BME280;9534;51.140;6.296;2023-12-04T08:44:07;66816.56;;;1.11;100.00
18813;BME280;9534;51.140;6.296;2023-12-04T08:48:10;66812.75;;;1.10;100.00
18813;BME280;9534;51.140;6.296;2023-12-04T08:52:13;66821.09;;;1.15;100.00
18813;BME280;9534;51.140;6.296;2023-12-04T08:56:20;66822.94;;;1.19;100.00
18813;BME280;9534;51.140;6.296;2023-12-04T09:00:32;66830.84;;;1.26;100.00
18813;BME280;9534;51.140;6.296;2023-12-04T09:04:37;66843.38;;;1.29;100.00
18813;BME280;9534;51.140;6.296;2023-12-04T09:08:42;66838.06;;;1.29;100.00
18813;BME280;9534;51.140;6.296;2023-12-04T09:12:59;66842.88;;;1.38;100.00
18813;BME280;9534;51.140;6.296;2023-12-04T09:17:03;66852.19;;;1.42;100.00
18813;BME280;9534;51.140;6.296;2023-12-04T09:21:06;66856.88;;;1.48;100.00
18813;BME280;9534;51.140;6.296;2023-12-04T09:25:12;66870.84;;;1.58;100.00
18813;BME280;9534;51.140;6.296;2023-12-04T09:29:18;66866.06;;;1.59;100.00
18813;BME280;9534;51.140;6.296;2023-12-04T09:33:26;66867.19;;;1.60;100.00
18813;BME280;9534;51.140;6.296;2023-12-04T09:37:30;66873.44;;;1.65;100.00
18813;BME280;9534;51.140;6.296;2023-12-04T09:41:34;66883.28;;;1.69;100.00
18813;BME280;9534;51.140;6.296;2023-12-04T09:45:42;66878.69;;;1.72;100.00
18813;BME280;9534;51.140;6.296;2023-12-04T09:49:46;66887.81;;;1.73;100.00
18813;BME280;9534;51.140;6.296;2023-12-04T09:53:52;66882.16;;;1.68;100.00
18813;BME280;9534;51.140;6.296;2023-12-04T09:57:57;66891.22;;;1.76;100.00
18813;BME280;9534;51.140;6.296;2023-12-04T10:02:05;66885.16;;;1.73;100.00
18813;BME280;9534;51.140;6.296;2023-12-04T10:06:09;66888.94;;;1.74;100.00
18813;BME280;9534;51.140;6.296;2023-12-04T10:10:15;66890.63;;;1.76;100.00
18813;BME280;9534;51.140;6.296;2023-12-04T10:14:19;66887.00;;;1.77;100.00
18813;BME280;9534;51.140;6.296;2023-12-04T10:18:25;66894.63;;;1.79;100.00
18813;BME280;9534;51.140;6.296;2023-12-04T10:22:29;66889.28;;;1.79;100.00
18813;BME280;9534;51.140;6.296;2023-12-04T10:26:34;66902.91;;;1.84;100.00
18813;BME280;9534;51.140;6.296;2023-12-04T10:30:37;66895.88;;;1.83;100.00
18813;BME280;9534;51.140;6.296;2023-12-04T10:34:42;66898.16;;;1.85;100.00
18813;BME280;9534;51.140;6.296;2023-12-04T10:38:47;66908.75;;;1.92;100.00
18813;BME280;9534;51.140;6.296;2023-12-04T10:43:10;66913.09;;;1.93;100.00
18813;BME280;9534;51.140;6.296;2023-12-04T10:47:15;66904.78;;;1.88;100.00
18813;BME280;9534;51.140;6.296;2023-12-04T10:51:19;66892.50;;;1.80;100.00
18813;BME280;9534;51.140;6.296;2023-12-04T10:55:24;66889.50;;;1.75;100.00
18813;BME280;9534;51.140;6.296;2023-12-04T10:59:28;66880.78;;;1.72;100.00
18813;BME280;9534;51.140;6.296;2023-12-04T11:03:36;66881.19;;;1.70;100.00
18813;BME280;9534;51.140;6.296;2023-12-04T11:07:44;66891.78;;;1.77;100.00
18813;BME280;9534;51.140;6.296;2023-12-04T11:12:08;66903.31;;;1.82;100.00
18813;BME280;9534;51.140;6.296;2023-12-04T11:16:20;66897.44;;;1.82;100.00
18813;BME280;9534;51.140;6.296;2023-12-04T11:20:25;66896.28;;;1.81;100.00
18813;BME280;9534;51.140;6.296;2023-12-04T11:24:31;66894.63;;;1.79;100.00
18813;BME280;9534;51.140;6.296;2023-12-04T11:28:39;66882.72;;;1.69;100.00
18813;BME280;9534;51.140;6.296;2023-12-04T11:32:43;66870.84;;;1.58;100.00
18813;BME280;9534;51.140;6.296;2023-12-04T11:36:48;66871.41;;;1.59;100.00
18813;BME280;9534;51.140;6.296;2023-12-04T11:40:52;66868.59;;;1.56;100.00
18813;BME280;9534;51.140;6.296;2023-12-04T11:44:57;66862.53;;;1.53;100.00
18813;BME280;9534;51.140;6.296;2023-12-04T11:53:19;66861.41;;;1.52;100.00
18813;BME280;9534;51.140;6.296;2023-12-04T11:57:24;66860.66;;;1.49;100.00
18813;BME280;9534;51.140;6.296;2023-12-04T12:01:32;66848.22;;;1.38;100.00
18813;BME280;9534;51.140;6.296;2023-12-04T12:05:36;66840.31;;;1.31;100.00
18813;BME280;9534;51.140;6.296;2023-12-04T12:09:42;66827.88;;;1.21;100.00
18813;BME280;9534;51.140;6.296;2023-12-04T12:13:46;66832.81;;;1.23;100.00
18813;BME280;9534;51.140;6.296;2023-12-04T12:17:49;66826.19;;;1.19;100.00
18813;BME280;9534;51.140;6.296;2023-12-04T12:21:54;66821.41;;;1.20;100.00
18813;BME280;9534;51.140;6.296;2023-12-04T12:25:57;66834.66;;;1.27;100.00
18813;BME280;9534;51.140;6.296;2023-12-04T12:30:06;66835.56;;;1.32;100.00
18813;BME280;9534;51.140;6.296;2023-12-04T12:34:10;66847.09;;;1.37;100.00
18813;BME280;9534;51.140;6.296;2023-12-04T12:38:13;66851.63;;;1.41;100.00
18813;BME280;9534;51.140;6.296;2023-12-04T12:42:26;66853.56;;;1.38;100.00
18813;BME280;9534;51.140;6.296;2023-12-04T12:46:32;66855.00;;;1.44;100.00
18813;BME280;9534;51.140;6.296;2023-12-04T12:50:36;66842.88;;;1.38;100.00
18813;BME280;9534;51.140;6.296;2023-12-04T12:54:39;66840.31;;;1.31;100.00
18813;BME280;9534;51.140;6.296;2023-12-04T12:58:43;66826.50;;;1.24;100.00
18813;BME280;9534;51.140;6.296;2023-12-04T13:02:47;66829.00;;;1.22;100.00
18813;BME280;9534;51.140;6.296;2023-12-04T13:06:52;66826.75;;;1.20;100.00
18813;BME280;9534;51.140;6.296;2023-12-04T13:10:57;66825.59;;;1.19;100.00
18813;BME280;9534;51.140;6.296;2023-12-04T13:15:03;66827.16;;;1.18;100.00
18813;BME280;9534;51.140;6.296;2023-12-04T13:19:07;66830.94;;;1.19;100.00
18813;BME280;9534;51.140;6.296;2023-12-04T13:23:11;66831.84;;;1.24;100.00
18813;BME280;9534;51.140;6.296;2023-12-04T13:27:15;66834.25;;;1.28;100.00
18813;BME280;9534;51.140;6.296;2023-12-04T13:31:18;66847.09;;;1.37;100.00
18813;BME280;9534;51.140;6.296;2023-12-04T13:35:24;66848.38;;;1.41;100.00
18813;BME280;9534;51.140;6.296;2023-12-04T13:39:30;66863.34;;;1.49;100.00
18813;BME280;9534;51.140;6.296;2023-12-04T13:43:50;66867.47;;;1.55;100.00
18813;BME280;9534;51.140;6.296;2023-12-04T13:47:52;66874.25;;;1.61;100.00
18813;BME280;9534;51.140;6.296;2023-12-04T13:51:57;66880.63;;;1.69;100.00
18813;BME280;9534;51.140;6.296;2023-12-04T13:56:01;66893.16;;;1.73;100.00
18813;BME280;9534;51.140;6.296;2023-12-04T14:00:26;66884.03;;;1.72;100.00
18813;BME280;9534;51.140;6.296;2023-12-04T14:04:29;66899.22;;;1.76;100.00
18813;BME280;9534;51.140;6.296;2023-12-04T14:08:34;66894.63;;;1.79;100.00
18813;BME280;9534;51.140;6.296;2023-12-04T14:12:38;66893.47;;;1.78;100.00
18813;BME280;9534;51.140;6.296;2023-12-04T14:16:41;66891.38;;;1.79;100.00
18813;BME280;9534;51.140;6.296;2023-12-04T14:20:44;66891.22;;;1.76;100.00
18813;BME280;9534;51.140;6.296;2023-12-04T14:24:50;66891.78;;;1.77;100.00
18813;BME280;9534;51.140;6.296;2023-12-04T14:28:53;66892.34;;;1.77;100.00
18813;BME280;9534;51.140;6.296;2023-12-04T14:32:59;66892.34;;;1.77;100.00
18813;BME280;9534;51.140;6.296;2023-12-04T14:37:02;66892.91;;;1.78;100.00
18813;BME280;9534;51.140;6.296;2023-12-04T14:41:08;66885.31;;;1.76;100.00
18813;BME280;9534;51.140;6.296;2023-12-04T14:45:12;66883.03;;;1.74;100.00
18813;BME280;9534;51.140;6.296;2023-12-04T14:49:14;66886.69;;;1.72;100.00
18813;BME280;9534;51.140;6.296;2023-12-04T14:53:18;66880.63;;;1.69;100.00
18813;BME280;9534;51.140;6.296;2023-12-04T14:57:32;66874.25;;;1.61;100.00
18813;BME280;9534;51.140;6.296;2023-12-04T15:02:08;66849.91;;;1.40;100.00
18813;BME280;9534;51.140;6.296;2023-12-04T15:06:46;66830.44;;;1.27;100.00
18813;BME280;9534;51.140;6.296;2023-12-04T15:11:18;66832.38;;;1.25;100.00
18813;BME280;9534;51.140;6.296;2023-12-04T15:15:39;66821.41;;;1.20;100.00
18813;BME280;9534;51.140;6.296;2023-12-04T15:20:04;66818.81;;;1.13;100.00
18813;BME280;9534;51.140;6.296;2023-12-04T15:24:34;66810.91;;;1.06;100.00
18813;BME280;9534;51.140;6.296;2023-12-04T15:28:39;66822.31;;;1.09;100.00
18813;BME280;9534;51.140;6.296;2023-12-04T15:32:44;66804.44;;;1.05;100.00
18813;BME280;9534;51.140;6.296;2023-12-04T15:36:47;66809.78;;;1.05;100.00
18813;BME280;9534;51.140;6.296;2023-12-04T15:40:52;66801.06;;;1.02;100.00
18813;BME280;9534;51.140;6.296;2023-12-04T15:44:57;66803.31;;;1.04;100.00
18813;BME280;9534;51.140;6.296;2023-12-04T15:49:02;66806.16;;;1.06;100.00
18813;BME280;9534;51.140;6.296;2023-12-04T15:53:05;66811.63;;;1.09;100.00
18813;BME280;9534;51.140;6.296;2023-12-04T15:57:08;66814.31;;;1.09;100.00
18813;BME280;9534;51.140;6.296;2023-12-04T16:01:12;66818.09;;;1.10;100.00
18813;BME280;9534;51.140;6.296;2023-12-04T16:05:16;66817.88;;;1.14;100.00
18813;BME280;9534;51.140;6.296;2023-12-04T16:09:19;66824.88;;;1.16;100.00
18813;BME280;9534;51.140;6.296;2023-12-04T16:13:22;66820.53;;;1.14;100.00
18813;BME280;9534;51.140;6.296;2023-12-04T16:17:26;66819.94;;;1.14;100.00
18813;BME280;9534;51.140;6.296;2023-12-04T16:21:31;66820.53;;;1.14;100.00
18813;BME280;9534;51.140;6.296;2023-12-04T16:25:35;66824.47;;;1.18;100.00
18813;BME280;9534;51.140;6.296;2023-12-04T16:29:38;66832.06;;;1.20;100.00
18813;BME280;9534;51.140;6.296;2023-12-04T16:33:43;66821.81;;;1.18;100.00
18813;BME280;9534;51.140;6.296;2023-12-04T16:37:48;66827.88;;;1.21;100.00
18813;BME280;9534;51.140;6.296;2023-12-04T16:41:51;66829.81;;;1.18;100.00
18813;BME280;9534;51.140;6.296;2023-12-04T16:45:54;66824.88;;;1.16;100.00
18813;BME280;9534;51.140;6.296;2023-12-04T16:49:59;66826.00;;;1.17;100.00
18813;BME280;9534;51.140;6.296;2023-12-04T16:54:04;66823.91;;;1.17;100.00
18813;BME280;9534;51.140;6.296;2023-12-04T16:58:08;66826.00;;;1.17;100.00
18813;BME280;9534;51.140;6.296;2023-12-04T17:02:11;66827.16;;;1.18;100.00
18813;BME280;9534;51.140;6.296;2023-12-04T17:06:15;66819.72;;;1.18;100.00
18813;BME280;9534;51.140;6.296;2023-12-04T17:10:20;66829.00;;;1.22;100.00
18813;BME280;9534;51.140;6.296;2023-12-04T17:14:24;66832.38;;;1.25;100.00
18813;BME280;9534;51.140;6.296;2023-12-04T17:18:28;66831.97;;;1.27;100.00
18813;BME280;9534;51.140;6.296;2023-12-04T17:22:33;66827.78;;;1.27;100.00
18813;BME280;9534;51.140;6.296;2023-12-04T17:26:38;66833.84;;;1.30;100.00
18813;BME280;9534;51.140;6.296;2023-12-04T17:30:42;66838.38;;;1.34;100.00
18813;BME280;9534;51.140;6.296;2023-12-04T17:34:47;66845.97;;;1.36;100.00
18813;BME280;9534;51.140;6.296;2023-12-04T17:38:51;66849.34;;;1.39;100.00
18813;BME280;9534;51.140;6.296;2023-12-04T17:42:56;66854.84;;;1.42;100.00
18813;BME280;9534;51.140;6.296;2023-12-04T17:47:00;66845.16;;;1.40;100.00
18813;BME280;9534;51.140;6.296;2023-12-04T17:51:04;66844.16;;;1.42;100.00
18813;BME280;9534;51.140;6.296;2023-12-04T17:55:08;66852.34;;;1.44;100.00
18813;BME280;9534;51.140;6.296;2023-12-04T17:59:15;66860.34;;;1.44;100.00
18813;BME280;9534;51.140;6.296;2023-12-04T18:03:19;66853.88;;;1.43;100.00
18813;BME280;9534;51.140;6.296;2023-12-04T18:07:23;66856.88;;;1.48;100.00
18813;BME280;9534;51.140;6.296;2023-12-04T18:11:28;66861.81;;;1.50;100.00
18813;BME280;9534;51.140;6.296;2023-12-04T18:15:33;66863.34;;;1.49;100.00
18813;BME280;9534;51.140;6.296;2023-12-04T18:19:36;66860.66;;;1.49;100.00
18813;BME280;9534;51.140;6.296;2023-12-04T18:23:40;66859.53;;;1.48;100.00
18813;BME280;9534;51.140;6.296;2023-12-04T18:27:43;66862.94;;;1.51;100.00
18813;BME280;9534;51.140;6.296;2023-12-04T18:31:49;66861.94;;;1.53;100.00
18813;BME280;9534;51.140;6.296;2023-12-04T18:35:53;66867.47;;;1.55;100.00
18813;BME280;9534;51.140;6.296;2023-12-04T18:39:58;66863.25;;;1.56;100.00
18813;BME280;9534;51.140;6.296;2023-12-04T18:44:02;66875.06;;;1.57;100.00
18813;BME280;9534;51.140;6.296;2023-12-04T18:48:08;66874.25;;;1.61;100.00
18813;BME280;9534;51.140;6.296;2023-12-04T18:52:15;66870.44;;;1.60;100.00
18813;BME280;9534;51.140;6.296;2023-12-04T18:56:18;66876.91;;;1.61;100.00
18813;BME280;9534;51.140;6.296;2023-12-04T19:00:24;66879.91;;;1.66;100.00
18813;BME280;9534;51.140;6.296;2023-12-04T19:04:31;66876.50;;;1.63;100.00
18813;BME280;9534;51.140;6.296;2023-12-04T19:08:37;66878.78;;;1.65;100.00
18813;BME280;9534;51.140;6.296;2023-12-04T19:12:43;66878.38;;;1.67;100.00
18813;BME280;9534;51.140;6.296;2023-12-04T19:16:46;66878.38;;;1.67;100.00
18813;BME280;9534;51.140;6.296;2023-12-04T19:20:51;66881.59;;;1.68;100.00
18813;BME280;9534;51.140;6.296;2023-12-04T19:24:56;66881.75;;;1.70;100.00
18813;BME280;9534;51.140;6.296;2023-12-04T19:29:00;66889.38;;;1.72;100.00
18813;BME280;9534;51.140;6.296;2023-12-04T19:33:03;66882.47;;;1.73;100.00
18813;BME280;9534;51.140;6.296;2023-12-04T19:37:20;66891.22;;;1.76;100.00
18813;BME280;9534;51.140;6.296;2023-12-04T19:41:28;66887.00;;;1.77;100.00
18813;BME280;9534;51.140;6.296;2023-12-04T19:45:31;66892.50;;;1.80;100.00
18813;BME280;9534;51.140;6.296;2023-12-04T19:49:35;66897.56;;;1.84;100.00
18813;BME280;9534;51.140;6.296;2023-12-04T19:53:45;66898.88;;;1.88;100.00
18813;BME280;9534;51.140;6.296;2023-12-04T19:57:48;66907.03;;;1.90;100.00
18813;BME280;9534;51.140;6.296;2023-12-04T20:01:51;66909.31;;;1.92;100.00
18813;BME280;9534;51.140;6.296;2023-12-04T20:05:55;66909.72;;;1.90;100.00
18813;BME280;9534;51.140;6.296;2023-12-04T20:09:59;66909.47;;;1.95;100.00
18813;BME280;9534;51.140;6.296;2023-12-04T20:14:03;66910.03;;;1.95;100.00
18813;BME280;9534;51.140;6.296;2023-12-04T20:18:07;66910.75;;;1.98;100.00
18813;BME280;9534;51.140;6.296;2023-12-04T20:22:10;66917.22;;;1.99;100.00
18813;BME280;9534;51.140;6.296;2023-12-04T20:26:16;66916.66;;;1.99;100.00
18813;BME280;9534;51.140;6.296;2023-12-04T20:30:22;66924.44;;;2.03;100.00
18813;BME280;9534;51.140;6.296;2023-12-04T20:34:26;66920.22;;;2.04;100.00
18813;BME280;9534;51.140;6.296;2023-12-04T20:38:32;66925.72;;;2.07;100.00
18813;BME280;9534;51.140;6.296;2023-12-04T20:42:37;66927.41;;;2.08;100.00
18813;BME280;9534;51.140;6.296;2023-12-04T20:46:42;66928.13;;;2.11;100.00
18813;BME280;9534;51.140;6.296;2023-12-04T20:50:46;66931.94;;;2.12;100.00
18813;BME280;9534;51.140;6.296;2023-12-04T20:54:51;66928.84;;;2.14;100.00
18813;BME280;9534;51.140;6.296;2023-12-04T20:59:02;66939.00;;;2.14;100.00
18813;BME280;9534;51.140;6.296;2023-12-04T21:03:06;66933.78;;;2.16;100.00
18813;BME280;9534;51.140;6.296;2023-12-04T21:07:10;66934.38;;;2.17;100.00
18813;BME280;9534;51.140;6.296;2023-12-04T21:11:16;66935.09;;;2.20;100.00
18813;BME280;9534;51.140;6.296;2023-12-04T21:15:20;66939.31;;;2.19;100.00
18813;BME280;9534;51.140;6.296;2023-12-04T21:19:25;66941.72;;;2.23;100.00
18813;BME280;9534;51.140;6.296;2023-12-04T21:23:28;66949.88;;;2.26;100.00
18813;BME280;9534;51.140;6.296;2023-12-04T21:27:31;66952.88;;;2.31;100.00
18813;BME280;9534;51.140;6.296;2023-12-04T21:31:37;66950.91;;;2.34;100.00
18813;BME280;9534;51.140;6.296;2023-12-04T21:35:40;66956.84;;;2.34;100.00
18813;BME280;9534;51.140;6.296;2023-12-04T21:39:44;66953.75;;;2.36;100.00
18813;BME280;9534;51.140;6.296;2023-12-04T21:43:49;66959.25;;;2.39;100.00
18813;BME280;9534;51.140;6.296;2023-12-04T21:47:56;66962.50;;;2.39;100.00
18813;BME280;9534;51.140;6.296;2023-12-04T21:52:00;66963.63;;;2.40;100.00
18813;BME280;9534;51.140;6.296;2023-12-04T21:56:04;66965.31;;;2.42;100.00
18813;BME280;9534;51.140;6.296;2023-12-04T22:00:10;66971.97;;;2.45;100.00